Andover, Virginia
Current Conditions -  °F | °C
As of 12:15 AM on Saturday 29 Nov 2014 (Local Time) from KLNP Reporting Station
Clear Clear  
Wind Chill: -6°   Ceiling: Unl
Heat Index: -1°   Visibility: 10mi
Dew Point: -8°   Wind: 9mph
Humidity: 60%   Direction: 220°SW
Pressure: 30.14"   Gusts: NA
Location:  36.92°N, 82.8°W
Report Text: KLNP 290515Z AUTO 22008KT 10SM CLR M01/M08 A3014 RMK AO2
Loading
Personal Weather Stations






























Interactive Weather Map New forecast layout! Learn more

10-Day Weather Forecast

Advertisements
Track Severe Weather on mobile